Terminal Aerodrome Forecast
Issued by NWS

Home | Current Version | Previous Version | Text Only | Print | Product List | Glossary On
Versions: 1 2 3 4 5 6 7 8 9 10 11 12 13 14 15 16 17 18 19 20 21 22 23 24 25 26 27 28 29 30 31 32 33 34
000
FTUS46 KOTX 201130
TAFCOE
TAF
KCOE 201130Z 2012/2112 00000KT P6SM BKN070
     FM201600 10006KT 4SM -RASN BR OVC015
     FM202100 18008G18KT P6SM -SHRA BKN040 OVC100
     FM210100 21013G21KT P6SM -SHRA BKN040 OVC080
     FM210700 VRB05KT P6SM BKN010=

USA.gov is the U.S. government's official web portal to all federal, state and local government web resources and services.